Time;durP1;ratioP1;P1;durP2;ratioP2;P2;SDS_P1;SDS_P2;PMS_P1;PMS_P2;Temp;Humidity;BMP_temperature;BMP_pressure;BME280_temperature;BME280_humidity;BME280_pressure;Samples;Min_cycle;Max_cycle;Signal;HPM_P1;HPM_P2
2023/04/25 00:02:25;;;;;;;1.23;0.80;;;21.50;72.50;;;;;;5063266;28;20199;-57
2023/04/25 00:04:52;;;;;;;1.37;0.80;;;21.50;72.60;;;;;;5056447;28;20223;-58
2023/04/25 00:07:20;;;;;;;0.90;0.70;;;21.50;72.70;;;;;;5061153;28;20841;-56
2023/04/25 00:09:47;;;;;;;1.40;0.80;;;21.50;72.60;;;;;;5060579;28;20196;-60
2023/04/25 00:12:13;;;;;;;1.00;0.60;;;21.50;72.50;;;;;;5053413;28;20949;-53
2023/04/25 00:14:40;;;;;;;1.17;0.70;;;21.50;72.50;;;;;;5054526;28;20807;-55
2023/04/25 00:17:07;;;;;;;2.95;0.80;;;21.40;72.30;;;;;;5057352;28;20192;-58
2023/04/25 00:19:34;;;;;;;1.00;0.73;;;21.50;72.40;;;;;;5068328;28;20191;-50
2023/04/25 00:22:01;;;;;;;1.00;0.80;;;21.40;72.30;;;;;;5055875;28;20507;-54
2023/04/25 00:24:29;;;;;;;1.10;0.80;;;21.40;72.30;;;;;;5057191;28;20227;-58
2023/04/25 00:26:56;;;;;;;0.80;0.60;;;21.40;72.30;;;;;;5054171;28;20208;-54
2023/04/25 00:29:23;;;;;;;1.00;0.73;;;21.40;72.30;;;;;;5052373;28;20660;-55
2023/04/25 00:31:49;;;;;;;1.10;0.80;;;21.40;72.40;;;;;;5060794;28;20441;-51
2023/04/25 00:34:16;;;;;;;1.88;0.90;;;21.40;72.40;;;;;;5062025;28;20932;-52
2023/04/25 00:36:42;;;;;;;1.50;0.90;;;21.40;72.30;;;;;;5057176;28;20651;-54
2023/04/25 00:39:09;;;;;;;1.90;0.85;;;21.40;72.40;;;;;;5062189;28;20740;-54
2023/04/25 00:41:39;;;;;;;1.30;0.80;;;21.40;72.40;;;;;;5053136;28;20610;-54
2023/04/25 00:44:07;;;;;;;1.42;0.75;;;21.40;72.30;;;;;;5055134;28;20260;-64
2023/04/25 00:46:35;;;;;;;0.90;0.70;;;21.30;72.30;;;;;;5052400;28;20241;-56
2023/04/25 00:49:02;;;;;;;1.48;0.90;;;21.40;72.30;;;;;;5054910;28;20198;-52
2023/04/25 00:51:29;;;;;;;1.10;0.70;;;21.40;72.40;;;;;;5057319;28;20191;-54
2023/04/25 00:53:56;;;;;;;0.90;0.70;;;21.30;72.20;;;;;;5054457;28;20198;-62
2023/04/25 00:56:23;;;;;;;1.25;0.80;;;21.30;72.20;;;;;;5061075;28;20457;-57
2023/04/25 00:58:55;;;;;;;1.53;1.00;;;21.30;72.30;;;;;;5053060;28;20257;-57
2023/04/25 01:01:22;;;;;;;1.20;0.90;;;21.30;72.30;;;;;;5059540;28;20485;-53
2023/04/25 01:03:50;;;;;;;1.10;0.90;;;21.30;72.30;;;;;;5051733;28;20698;-54
2023/04/25 01:06:17;;;;;;;1.42;0.90;;;21.30;72.40;;;;;;5063236;28;20199;-51
2023/04/25 01:08:44;;;;;;;1.20;0.80;;;21.30;72.40;;;;;;5054245;28;20258;-60
2023/04/25 01:11:11;;;;;;;1.30;0.88;;;21.30;72.30;;;;;;5059434;28;20199;-56
2023/04/25 01:13:37;;;;;;;1.08;0.80;;;21.30;72.30;;;;;;5058083;28;20207;-56
2023/04/25 01:16:06;;;;;;;0.90;0.70;;;21.30;72.30;;;;;;5050181;28;20203;-58
2023/04/25 01:18:33;;;;;;;1.00;0.90;;;21.30;72.30;;;;;;5067358;28;20282;-54
2023/04/25 01:21:08;;;;;;;0.90;0.77;;;21.30;72.30;;;;;;5061586;28;20203;-56
2023/04/25 01:23:35;;;;;;;1.23;0.85;;;21.30;72.30;;;;;;5056105;28;20296;-57
2023/04/25 01:26:02;;;;;;;1.20;0.80;;;21.20;72.20;;;;;;5054166;28;20210;-59
2023/04/25 01:28:29;;;;;;;1.75;0.80;;;21.30;72.30;;;;;;5051791;28;20726;-57
2023/04/25 01:30:56;;;;;;;1.67;0.87;;;21.20;72.10;;;;;;5057413;28;20218;-58
2023/04/25 01:33:23;;;;;;;1.00;0.73;;;21.20;72.20;;;;;;5050420;28;21081;-56
2023/04/25 01:35:50;;;;;;;1.77;0.85;;;21.20;72.20;;;;;;5060211;28;20612;-57
2023/04/25 01:38:18;;;;;;;1.10;0.90;;;21.20;72.10;;;;;;5057883;28;20199;-54
2023/04/25 01:40:46;;;;;;;1.95;0.90;;;21.20;72.10;;;;;;5053349;28;20241;-54
2023/04/25 01:43:14;;;;;;;1.88;1.02;;;21.20;72.10;;;;;;5053040;28;20294;-55
2023/04/25 01:45:41;;;;;;;1.55;1.00;;;21.20;72.10;;;;;;5050233;28;20222;-55
2023/04/25 01:48:08;;;;;;;1.42;1.15;;;21.20;72.10;;;;;;5048927;28;20191;-59
2023/04/25 01:50:35;;;;;;;2.35;1.10;;;21.20;72.10;;;;;;5055138;28;20199;-53
2023/04/25 01:53:02;;;;;;;1.08;0.80;;;21.20;72.10;;;;;;5052929;28;20199;-56
2023/04/25 01:55:30;;;;;;;1.42;0.80;;;21.20;72.00;;;;;;5058948;28;20202;-56
2023/04/25 01:57:58;;;;;;;1.10;1.00;;;21.20;72.10;;;;;;5057168;28;20241;-55
2023/04/25 02:00:25;;;;;;;1.15;0.70;;;21.20;72.10;;;;;;5062395;28;20560;-55
2023/04/25 02:02:53;;;;;;;1.48;1.08;;;21.10;72.10;;;;;;5056615;28;20188;-55
2023/04/25 02:05:20;;;;;;;1.10;1.00;;;21.10;72.20;;;;;;5054101;28;20245;-55
2023/04/25 02:07:47;;;;;;;0.90;0.80;;;21.10;72.10;;;;;;5061186;28;20273;-56
2023/04/25 02:10:14;;;;;;;1.10;0.85;;;21.10;72.10;;;;;;5051304;28;20721;-56
2023/04/25 02:12:42;;;;;;;1.98;1.00;;;21.10;72.10;;;;;;5056668;28;20282;-56
2023/04/25 02:15:10;;;;;;;0.90;0.70;;;21.10;72.10;;;;;;5051246;28;20204;-59
2023/04/25 02:17:37;;;;;;;1.10;0.90;;;21.10;72.10;;;;;;5051249;28;20282;-54
2023/04/25 02:20:05;;;;;;;1.25;0.90;;;21.10;72.10;;;;;;5055140;28;20211;-65
2023/04/25 02:22:31;;;;;;;1.10;0.90;;;21.10;72.10;;;;;;5050474;28;20556;-60
2023/04/25 02:24:58;;;;;;;1.63;1.02;;;21.10;72.00;;;;;;5056161;28;20211;-61
2023/04/25 02:27:25;;;;;;;1.10;1.00;;;21.10;72.00;;;;;;5052737;28;20195;-60
2023/04/25 02:29:53;;;;;;;0.90;0.80;;;21.10;72.00;;;;;;5046694;28;20220;-53
2023/04/25 02:32:20;;;;;;;0.90;0.70;;;21.10;72.10;;;;;;5062320;28;20187;-54
2023/04/25 02:34:47;;;;;;;1.23;0.70;;;21.10;72.00;;;;;;5051726;28;20287;-61
2023/04/25 02:37:14;;;;;;;0.90;0.77;;;21.10;72.00;;;;;;5049282;28;20198;-59
2023/04/25 02:39:41;;;;;;;1.05;0.82;;;21.10;72.10;;;;;;5056025;28;20191;-60
2023/04/25 02:42:07;;;;;;;0.90;0.73;;;21.00;71.80;;;;;;5056185;28;20265;-56
2023/04/25 02:44:34;;;;;;;0.98;0.85;;;21.00;71.90;;;;;;5048216;28;20218;-58
2023/04/25 02:47:02;;;;;;;2.35;1.25;;;21.10;71.90;;;;;;5051340;28;20321;-55
2023/04/25 02:49:29;;;;;;;1.13;1.02;;;21.10;72.00;;;;;;5049605;28;20222;-59
2023/04/25 02:51:55;;;;;;;1.30;1.00;;;21.10;71.90;;;;;;5051279;28;20610;-57
2023/04/25 02:54:22;;;;;;;1.00;0.80;;;21.00;71.90;;;;;;5063764;28;20203;-59
2023/04/25 02:56:49;;;;;;;1.20;0.90;;;21.00;71.80;;;;;;5049557;28;20199;-58
2023/04/25 02:59:16;;;;;;;1.05;0.85;;;21.00;72.10;;;;;;5056381;28;20192;-59
2023/04/25 03:01:43;;;;;;;1.00;0.70;;;21.00;72.00;;;;;;5054288;28;20192;-57
2023/04/25 03:04:11;;;;;;;1.55;1.10;;;21.00;71.90;;;;;;5049649;28;20245;-58
2023/04/25 03:06:37;;;;;;;1.20;0.80;;;21.00;71.90;;;;;;5049375;28;20191;-58
2023/04/25 03:09:04;;;;;;;1.10;0.88;;;21.00;71.80;;;;;;5058744;28;20225;-53
2023/04/25 03:11:31;;;;;;;1.83;0.93;;;21.00;71.80;;;;;;5050046;28;20838;-56
2023/04/25 03:13:57;;;;;;;1.20;0.82;;;21.00;71.80;;;;;;5053829;28;20602;-55
2023/04/25 03:16:25;;;;;;;0.90;0.70;;;21.00;71.80;;;;;;5051915;28;20191;-60
2023/04/25 03:18:51;;;;;;;1.40;0.90;;;21.00;71.80;;;;;;5055717;28;20548;-56
2023/04/25 03:21:19;;;;;;;1.00;0.70;;;21.00;71.80;;;;;;5050942;28;20198;-54
2023/04/25 03:23:46;;;;;;;1.23;0.80;;;21.00;71.80;;;;;;5052737;28;20717;-55
2023/04/25 03:26:13;;;;;;;1.20;1.00;;;21.00;71.80;;;;;;5050408;28;20286;-57
2023/04/25 03:28:42;;;;;;;1.00;0.90;;;21.00;71.80;;;;;;5048170;28;20619;-58
2023/04/25 03:31:09;;;;;;;1.00;0.80;;;21.00;71.80;;;;;;5047771;28;20195;-53
2023/04/25 03:33:36;;;;;;;1.77;0.90;;;21.00;71.80;;;;;;5050903;28;20221;-53
2023/04/25 03:36:03;;;;;;;1.20;0.90;;;20.90;71.70;;;;;;5055096;28;20211;-50
2023/04/25 03:38:31;;;;;;;1.00;0.70;;;21.00;71.80;;;;;;5055404;28;20199;-53
2023/04/25 03:40:57;;;;;;;2.20;1.00;;;21.00;71.80;;;;;;5046666;28;20234;-54
2023/04/25 03:43:24;;;;;;;1.40;0.80;;;20.90;71.70;;;;;;5046969;28;20211;-56
2023/04/25 03:45:51;;;;;;;1.10;0.88;;;20.90;71.60;;;;;;5050821;28;20236;-58
2023/04/25 03:48:21;;;;;;;1.10;0.93;;;20.90;71.60;;;;;;5063709;28;20651;-55
2023/04/25 03:50:47;;;;;;;1.20;0.80;;;20.90;71.60;;;;;;5054574;28;20223;-57
2023/04/25 03:53:14;;;;;;;1.23;0.93;;;20.90;71.60;;;;;;5055683;28;20199;-52
2023/04/25 03:55:42;;;;;;;1.00;0.82;;;20.90;71.60;;;;;;5056829;28;20228;-56
2023/04/25 03:58:09;;;;;;;1.27;0.80;;;20.90;71.60;;;;;;5051154;28;20198;-61
2023/04/25 04:00:36;;;;;;;0.90;0.70;;;20.90;71.70;;;;;;5050943;28;20192;-53
2023/04/25 04:03:03;;;;;;;2.08;1.00;;;20.90;71.70;;;;;;5050665;28;20230;-56
2023/04/25 04:05:30;;;;;;;1.13;0.80;;;20.90;71.70;;;;;;5054243;28;20215;-56
2023/04/25 04:07:56;;;;;;;1.15;0.90;;;20.90;71.70;;;;;;5049908;28;20196;-53
2023/04/25 04:10:23;;;;;;;1.00;0.80;;;20.90;71.60;;;;;;5053138;28;20199;-57
2023/04/25 04:12:51;;;;;;;1.00;0.80;;;20.90;71.60;;;;;;5053867;28;20192;-55
2023/04/25 04:15:18;;;;;;;1.35;0.95;;;20.90;71.70;;;;;;5050309;28;20647;-55
2023/04/25 04:17:46;;;;;;;1.40;0.98;;;20.90;71.70;;;;;;5056693;28;20206;-55
2023/04/25 04:20:13;;;;;;;1.00;0.90;;;20.90;71.60;;;;;;5051942;28;20200;-60
2023/04/25 04:22:40;;;;;;;1.20;1.00;;;20.90;71.60;;;;;;5048097;28;20216;-53
2023/04/25 04:25:07;;;;;;;1.00;0.90;;;20.90;71.60;;;;;;5058771;28;20211;-53
2023/04/25 04:27:34;;;;;;;1.40;1.00;;;20.90;71.60;;;;;;5064401;28;20273;-57
2023/04/25 04:30:03;;;;;;;1.35;0.82;;;20.90;71.60;;;;;;5051840;28;20230;-55
2023/04/25 04:32:30;;;;;;;1.20;1.08;;;20.80;71.50;;;;;;5062861;28;20622;-59
2023/04/25 04:34:57;;;;;;;0.90;0.70;;;20.90;71.60;;;;;;5056971;28;20219;-62
2023/04/25 04:37:23;;;;;;;0.98;0.80;;;20.80;71.60;;;;;;5052506;28;20246;-58
2023/04/25 04:39:51;;;;;;;1.00;0.90;;;20.80;71.50;;;;;;5055209;28;20191;-52
2023/04/25 04:42:18;;;;;;;1.52;0.88;;;20.80;71.50;;;;;;5055816;28;20289;-52
2023/04/25 04:44:45;;;;;;;1.55;0.80;;;20.80;71.50;;;;;;5062040;28;20222;-62
2023/04/25 04:47:13;;;;;;;1.00;0.80;;;20.80;71.50;;;;;;5066289;28;20237;-58
2023/04/25 04:49:40;;;;;;;1.00;0.90;;;20.80;71.50;;;;;;5068211;28;20193;-56
2023/04/25 04:52:07;;;;;;;1.00;0.80;;;20.80;71.50;;;;;;5057465;28;20285;-53
2023/04/25 04:54:35;;;;;;;1.10;0.80;;;20.80;71.60;;;;;;5064138;28;20191;-60
2023/04/25 04:57:01;;;;;;;1.60;0.90;;;20.80;71.60;;;;;;5057887;28;20290;-59
2023/04/25 04:59:28;;;;;;;1.52;1.00;;;20.80;71.60;;;;;;5059465;28;20718;-55
2023/04/25 05:01:55;;;;;;;1.10;1.00;;;20.80;71.60;;;;;;5055149;28;20218;-57
2023/04/25 05:04:23;;;;;;;1.00;0.90;;;20.80;71.60;;;;;;5053269;28;20279;-62
2023/04/25 05:06:49;;;;;;;0.95;0.85;;;20.80;71.50;;;;;;5053511;28;20214;-60
2023/04/25 05:09:16;;;;;;;1.38;1.05;;;20.80;71.50;;;;;;5061686;28;20196;-55
2023/04/25 05:11:43;;;;;;;1.20;0.80;;;20.80;71.50;;;;;;5055954;28;20207;-57
2023/04/25 05:14:09;;;;;;;1.10;1.00;;;20.80;71.50;;;;;;5067606;28;20287;-62
2023/04/25 05:16:36;;;;;;;1.25;0.77;;;20.80;71.50;;;;;;5060087;28;20200;-59
2023/04/25 05:19:03;;;;;;;1.02;0.80;;;20.80;71.50;;;;;;5062198;28;20207;-58
2023/04/25 05:21:31;;;;;;;1.00;0.80;;;20.80;71.60;;;;;;5053867;28;20559;-56
2023/04/25 05:23:57;;;;;;;1.30;1.00;;;20.80;71.50;;;;;;5048878;28;20851;-53
2023/04/25 05:26:24;;;;;;;1.30;0.90;;;20.90;71.60;;;;;;5059498;28;20256;-55
2023/04/25 05:28:51;;;;;;;1.00;0.90;;;20.80;71.40;;;;;;5060062;28;21839;-55
2023/04/25 05:31:18;;;;;;;1.30;0.80;;;20.90;71.50;;;;;;5048712;28;20191;-56
2023/04/25 05:33:45;;;;;;;1.30;0.80;;;20.90;71.40;;;;;;5061621;28;20200;-61
2023/04/25 05:36:11;;;;;;;0.93;0.80;;;20.90;71.40;;;;;;5057473;28;20260;-61
2023/04/25 05:38:39;;;;;;;1.35;0.80;;;20.90;71.50;;;;;;5055455;28;20241;-58
2023/04/25 05:41:07;;;;;;;1.15;0.85;;;20.90;71.40;;;;;;5049336;28;20199;-62
2023/04/25 05:43:33;;;;;;;1.20;0.80;;;20.90;71.30;;;;;;5050113;28;20398;-56
2023/04/25 05:46:00;;;;;;;1.75;0.80;;;20.90;71.20;;;;;;5051319;28;20233;-58
2023/04/25 05:48:27;;;;;;;1.10;0.80;;;21.00;71.20;;;;;;5052803;28;20213;-54
2023/04/25 05:50:53;;;;;;;1.10;0.88;;;20.90;71.10;;;;;;5052251;28;20199;-54
2023/04/25 05:53:21;;;;;;;1.00;0.90;;;21.00;71.30;;;;;;5052982;28;20195;-59
2023/04/25 05:55:49;;;;;;;1.10;0.88;;;20.90;71.10;;;;;;5059425;28;20197;-57
2023/04/25 05:58:16;;;;;;;0.90;0.77;;;21.00;71.30;;;;;;5051861;28;20199;-58
2023/04/25 06:00:43;;;;;;;0.90;0.70;;;20.90;71.20;;;;;;5055365;28;20423;-54
2023/04/25 06:03:10;;;;;;;1.40;0.80;;;21.00;71.20;;;;;;5052847;28;20188;-53
2023/04/25 06:05:37;;;;;;;0.90;0.70;;;21.00;71.40;;;;;;5050214;28;20243;-60
2023/04/25 06:08:03;;;;;;;1.75;1.40;;;21.00;71.40;;;;;;5053986;28;20216;-56
2023/04/25 06:10:30;;;;;;;1.10;0.90;;;21.00;71.30;;;;;;5054861;28;20234;-59
2023/04/25 06:12:58;;;;;;;0.90;0.70;;;21.00;71.40;;;;;;5057077;28;20233;-53
2023/04/25 06:15:25;;;;;;;1.20;0.70;;;21.10;71.50;;;;;;5049441;28;20254;-54
2023/04/25 06:17:52;;;;;;;1.17;0.85;;;21.10;71.50;;;;;;5053145;28;20206;-55
2023/04/25 06:20:22;;;;;;;0.90;0.70;;;21.10;71.50;;;;;;5051791;28;20277;-58
2023/04/25 06:22:49;;;;;;;0.90;0.70;;;21.20;71.70;;;;;;5052495;28;20216;-56
2023/04/25 06:25:16;;;;;;;1.90;1.10;;;21.10;71.50;;;;;;5055977;28;20199;-51
2023/04/25 06:27:42;;;;;;;0.90;0.68;;;21.20;72.50;;;;;;5058294;28;20449;-56
2023/04/25 06:30:12;;;;;;;1.00;0.70;;;21.20;71.70;;;;;;5052529;28;20651;-52
2023/04/25 06:32:38;;;;;;;1.10;0.82;;;21.20;71.60;;;;;;5048534;28;20192;-57
2023/04/25 06:35:06;;;;;;;0.90;0.75;;;21.20;71.70;;;;;;5051831;28;20655;-56
2023/04/25 06:37:33;;;;;;;1.00;0.80;;;21.20;71.60;;;;;;5054125;28;20199;-56
2023/04/25 06:39:59;;;;;;;1.00;0.88;;;21.20;71.60;;;;;;5049777;28;20698;-64
2023/04/25 06:42:26;;;;;;;0.90;0.70;;;21.20;71.60;;;;;;5055342;28;20601;-51
2023/04/25 06:44:53;;;;;;;1.00;0.80;;;21.20;71.60;;;;;;5064592;28;20852;-57
2023/04/25 06:47:21;;;;;;;1.27;0.93;;;21.20;72.40;;;;;;5060037;28;21063;-52
2023/04/25 06:49:47;;;;;;;0.90;0.70;;;21.30;71.70;;;;;;5051796;28;20529;-51
2023/04/25 06:52:14;;;;;;;1.20;0.80;;;21.30;71.80;;;;;;5053687;28;20303;-55
2023/04/25 06:54:41;;;;;;;1.33;1.00;;;21.30;71.80;;;;;;5056026;28;20462;-55
2023/04/25 06:57:07;;;;;;;4.20;1.05;;;21.30;71.70;;;;;;5043456;28;20465;-55
2023/04/25 06:59:34;;;;;;;1.83;1.20;;;21.30;71.70;;;;;;5047614;28;20574;-51
2023/04/25 07:02:01;;;;;;;1.13;0.80;;;21.30;71.60;;;;;;5050633;28;20457;-60
2023/04/25 07:04:29;;;;;;;1.45;0.80;;;21.30;71.70;;;;;;5051611;28;20461;-55
2023/04/25 07:06:56;;;;;;;0.88;0.70;;;21.30;71.60;;;;;;5052208;28;20219;-57
2023/04/25 07:09:22;;;;;;;0.90;0.80;;;21.30;71.50;;;;;;5050300;28;20195;-51
2023/04/25 07:11:49;;;;;;;1.10;0.73;;;21.30;71.50;;;;;;5057536;28;20215;-58
2023/04/25 07:14:16;;;;;;;1.73;0.80;;;21.40;71.70;;;;;;5055630;28;20196;-59
2023/04/25 07:16:42;;;;;;;1.30;0.80;;;21.30;71.50;;;;;;5054462;28;20222;-58
2023/04/25 07:19:09;;;;;;;1.80;0.95;;;21.40;71.60;;;;;;5049489;28;20541;-57
2023/04/25 07:21:37;;;;;;;1.00;0.82;;;21.40;71.60;;;;;;5055419;28;20219;-52
2023/04/25 07:24:04;;;;;;;1.57;0.70;;;21.30;71.50;;;;;;5050162;28;20206;-58
2023/04/25 07:26:31;;;;;;;1.73;0.90;;;21.30;71.40;;;;;;5057137;28;20484;-57
2023/04/25 07:28:58;;;;;;;1.13;1.02;;;21.30;71.40;;;;;;5053748;28;20199;-55
2023/04/25 07:31:24;;;;;;;1.00;0.80;;;21.30;71.40;;;;;;5050186;28;20253;-54
2023/04/25 07:33:51;;;;;;;1.20;0.70;;;21.40;71.50;;;;;;5056381;28;20187;-58
2023/04/25 07:36:18;;;;;;;1.00;0.70;;;21.40;71.50;;;;;;5048231;28;20560;-62
2023/04/25 07:38:46;;;;;;;2.17;0.68;;;21.40;71.50;;;;;;5052854;28;20840;-61
2023/04/25 07:41:12;;;;;;;0.90;0.70;;;21.40;71.50;;;;;;5050604;28;20191;-56
2023/04/25 07:43:39;;;;;;;1.90;0.90;;;21.40;71.50;;;;;;5052797;28;20305;-61
2023/04/25 07:46:06;;;;;;;0.90;0.65;;;21.40;71.50;;;;;;5053475;28;20218;-55
2023/04/25 07:48:33;;;;;;;1.38;0.75;;;21.40;71.50;;;;;;5059826;28;20194;-55
2023/04/25 07:50:59;;;;;;;3.53;1.13;;;21.40;71.50;;;;;;5055968;28;20200;-61
2023/04/25 07:53:26;;;;;;;0.90;0.70;;;21.50;71.70;;;;;;5049255;28;20215;-61
2023/04/25 07:55:54;;;;;;;4.13;1.10;;;21.50;71.70;;;;;;5058486;28;20203;-60
2023/04/25 07:58:21;;;;;;;1.27;1.15;;;21.50;71.60;;;;;;5049929;28;20206;-57
2023/04/25 08:00:48;;;;;;;2.45;1.20;;;21.50;72.20;;;;;;5055023;28;20367;-50
2023/04/25 08:03:15;;;;;;;2.70;1.10;;;21.50;72.10;;;;;;5061608;28;20204;-52
2023/04/25 08:05:42;;;;;;;0.90;0.70;;;21.50;72.20;;;;;;5053565;28;20510;-55
2023/04/25 08:08:08;;;;;;;2.85;1.10;;;21.50;72.20;;;;;;5055742;28;20936;-60
2023/04/25 08:10:35;;;;;;;3.95;1.00;;;21.50;72.70;;;;;;5054967;28;20601;-59
2023/04/25 08:13:03;;;;;;;1.30;0.80;;;21.50;72.70;;;;;;5062527;28;20659;-61
2023/04/25 08:15:30;;;;;;;2.33;1.10;;;21.50;72.80;;;;;;5055919;28;20199;-60
2023/04/25 08:17:56;;;;;;;2.35;1.00;;;21.50;73.90;;;;;;5049825;28;20199;-59
2023/04/25 08:20:23;;;;;;;6.07;1.10;;;21.50;73.10;;;;;;5061043;28;20613;-59
2023/04/25 08:22:50;;;;;;;1.88;0.90;;;21.50;73.00;;;;;;5058469;28;20222;-61
2023/04/25 08:25:17;;;;;;;1.57;0.80;;;21.50;73.00;;;;;;5057357;28;20206;-59
2023/04/25 08:27:44;;;;;;;1.55;0.98;;;21.50;73.00;;;;;;5057893;28;20538;-65
2023/04/25 08:30:13;;;;;;;4.63;1.10;;;21.50;73.00;;;;;;5055079;28;20732;-61
2023/04/25 08:32:39;;;;;;;1.27;0.93;;;21.50;72.90;;;;;;5062913;28;20453;-51
2023/04/25 08:35:06;;;;;;;3.58;1.00;;;21.50;72.90;;;;;;5058514;28;20199;-65
2023/04/25 08:37:33;;;;;;;3.88;1.05;;;21.50;72.90;;;;;;5057770;28;20221;-62
2023/04/25 08:40:00;;;;;;;5.80;1.38;;;21.50;72.60;;;;;;5058615;28;20195;-62
2023/04/25 08:42:28;;;;;;;1.67;1.10;;;21.50;72.30;;;;;;5061208;28;20207;-58
2023/04/25 08:44:56;;;;;;;3.40;1.00;;;21.60;72.20;;;;;;5058683;28;20226;-59
2023/04/25 08:47:25;;;;;;;2.50;1.63;;;21.60;72.30;;;;;;5048609;28;20231;-62
2023/04/25 08:49:55;;;;;;;7.17;1.17;;;21.60;72.20;;;;;;5046759;28;20460;-61
2023/04/25 08:52:24;;;;;;;4.00;1.08;;;21.50;71.10;;;;;;5051019;28;20464;-60
2023/04/25 08:54:53;;;;;;;4.13;1.27;;;21.60;71.10;;;;;;5053687;28;20218;-60
2023/04/25 08:57:22;;;;;;;2.45;1.20;;;21.50;70.80;;;;;;5046668;28;20861;-62
2023/04/25 08:59:49;;;;;;;4.60;1.67;;;21.50;71.00;;;;;;5053426;28;20188;-61
2023/04/25 09:02:17;;;;;;;5.13;1.70;;;21.50;71.20;;;;;;5049491;28;20552;-64
2023/04/25 09:04:45;;;;;;;6.43;1.43;;;21.60;71.20;;;;;;5050575;28;20327;-67
2023/04/25 09:07:15;;;;;;;16.83;1.55;;;21.60;71.10;;;;;;5050603;28;20477;-62
2023/04/25 09:09:42;;;;;;;4.93;2.00;;;21.60;71.10;;;;;;5056672;28;20595;-62
2023/04/25 09:12:09;;;;;;;3.67;1.27;;;21.60;71.20;;;;;;5047436;28;20454;-67
2023/04/25 09:14:36;;;;;;;5.45;1.45;;;21.60;71.20;;;;;;5055275;28;20202;-61
2023/04/25 09:17:04;;;;;;;1.88;1.08;;;21.50;71.10;;;;;;5051563;28;20540;-57
2023/04/25 09:19:32;;;;;;;5.28;1.38;;;21.60;71.10;;;;;;5050987;28;20196;-59
2023/04/25 09:22:02;;;;;;;4.65;1.20;;;21.50;71.10;;;;;;5049885;28;20244;-56
2023/04/25 09:24:35;;;;;;;2.38;1.10;;;21.50;71.10;;;;;;5054510;28;20199;-57
2023/04/25 09:27:04;;;;;;;3.92;1.40;;;21.50;71.10;;;;;;5057000;28;20218;-56
2023/04/25 09:29:32;;;;;;;2.95;1.50;;;21.50;71.20;;;;;;5052775;28;20203;-58
2023/04/25 09:32:12;;;;;;;1.67;0.97;;;21.50;71.20;;;;;;5049188;28;20202;-61
2023/04/25 09:34:44;;;;;;;5.73;1.20;;;21.50;71.20;;;;;;5052153;28;20458;-59
2023/04/25 09:37:12;;;;;;;4.10;1.25;;;21.50;71.20;;;;;;5053167;28;20466;-65
2023/04/25 09:39:39;;;;;;;1.83;1.05;;;21.50;71.20;;;;;;5054900;28;20245;-63
2023/04/25 09:42:06;;;;;;;2.83;1.00;;;21.60;71.40;;;;;;5055134;28;20592;-63
2023/04/25 09:44:33;;;;;;;2.33;1.17;;;21.50;71.40;;;;;;5047921;28;20462;-64
2023/04/25 09:46:59;;;;;;;2.03;1.00;;;21.60;71.50;;;;;;5050030;28;20223;-58
2023/04/25 09:49:27;;;;;;;1.60;1.20;;;21.60;71.50;;;;;;5057759;28;20302;-63
2023/04/25 09:51:58;;;;;;;2.67;1.35;;;21.60;71.60;;;;;;5048603;28;20457;-57
2023/04/25 09:54:27;;;;;;;5.10;1.30;;;21.60;71.70;;;;;;5051571;28;20199;-59
2023/04/25 09:56:54;;;;;;;1.55;1.13;;;21.60;71.70;;;;;;5053203;28;20249;-55
2023/04/25 09:59:23;;;;;;;5.25;1.20;;;21.60;71.70;;;;;;5050013;28;20195;-59
2023/04/25 10:01:50;;;;;;;1.40;1.00;;;21.60;71.70;;;;;;5052849;28;20196;-57
2023/04/25 10:04:21;;;;;;;4.53;1.40;;;21.60;71.70;;;;;;5056872;28;20511;-60
2023/04/25 10:06:50;;;;;;;5.03;1.02;;;21.70;71.60;;;;;;5053093;28;20485;-66
2023/04/25 10:09:18;;;;;;;2.53;0.80;;;21.70;71.60;;;;;;5051599;28;20567;-64
2023/04/25 10:11:47;;;;;;;1.55;0.90;;;21.70;71.60;;;;;;5049973;28;20535;-63
2023/04/25 10:14:14;;;;;;;2.55;1.10;;;21.70;71.80;;;;;;5052975;28;20199;-63
2023/04/25 10:16:42;;;;;;;3.28;1.30;;;21.70;71.80;;;;;;5052826;28;20195;-62
2023/04/25 10:19:10;;;;;;;1.90;1.10;;;21.70;71.80;;;;;;5048251;28;20203;-63
2023/04/25 10:21:41;;;;;;;2.47;1.00;;;21.80;72.00;;;;;;5049035;28;20539;-57
2023/04/25 10:24:08;;;;;;;1.37;1.07;;;21.80;72.20;;;;;;5053306;28;20473;-57
2023/04/25 10:26:35;;;;;;;1.20;1.10;;;21.80;72.10;;;;;;5055890;28;21576;-62
2023/04/25 10:29:04;;;;;;;3.10;0.90;;;21.80;72.10;;;;;;5053269;28;20495;-56
2023/04/25 10:31:31;;;;;;;1.53;1.00;;;21.80;72.10;;;;;;5059828;28;20457;-59
2023/04/25 10:34:00;;;;;;;1.83;0.90;;;21.90;72.30;;;;;;5054696;28;20457;-59
2023/04/25 10:36:28;;;;;;;3.17;1.10;;;21.90;72.30;;;;;;5057407;28;20846;-55
2023/04/25 10:38:57;;;;;;;1.97;0.93;;;21.90;72.40;;;;;;5057444;28;20460;-62
2023/04/25 10:41:24;;;;;;;1.53;0.90;;;21.90;72.40;;;;;;5050230;28;20496;-54
2023/04/25 10:43:59;;;;;;;1.63;1.30;;;21.90;72.50;;;;;;5057043;28;20518;-59
2023/04/25 10:46:29;;;;;;;1.73;1.00;;;21.90;72.50;;;;;;5054653;28;20456;-56
2023/04/25 10:48:58;;;;;;;4.53;1.07;;;21.90;72.30;;;;;;5053568;28;20969;-57
2023/04/25 10:51:26;;;;;;;2.60;1.00;;;22.00;72.50;;;;;;5050825;28;21027;-61
2023/04/25 10:53:59;;;;;;;1.60;1.00;;;22.00;72.50;;;;;;5047267;28;20472;-64
2023/04/25 10:56:27;;;;;;;1.80;1.00;;;22.00;72.50;;;;;;5047191;28;20454;-60
2023/04/25 10:59:05;;;;;;;1.70;1.20;;;22.00;72.50;;;;;;5053112;28;20972;-64
2023/04/25 11:01:38;;;;;;;5.05;1.10;;;22.00;72.80;;;;;;5048292;28;20580;-67
2023/04/25 11:04:04;;;;;;;1.20;0.90;;;22.00;72.50;;;;;;5050288;28;20261;-67
2023/04/25 11:06:42;;;;;;;1.10;0.77;;;22.10;72.70;;;;;;5048900;28;20981;-68
2023/04/25 11:09:13;;;;;;;1.10;0.87;;;22.10;72.60;;;;;;5049015;28;20457;-58
2023/04/25 11:11:40;;;;;;;1.53;0.80;;;22.10;73.40;;;;;;5049640;28;20788;-61
2023/04/25 11:14:06;;;;;;;1.40;1.00;;;22.10;72.50;;;;;;5053006;28;20458;-65
2023/04/25 11:16:36;;;;;;;2.83;1.30;;;22.20;72.60;;;;;;5052729;28;20537;-60
2023/04/25 11:19:03;;;;;;;1.87;1.23;;;22.20;72.50;;;;;;5054237;28;20813;-61
2023/04/25 11:21:32;;;;;;;1.33;0.83;;;22.20;72.50;;;;;;5059467;28;20461;-55
2023/04/25 11:23:59;;;;;;;1.93;0.93;;;22.20;72.40;;;;;;5052503;28;20458;-61
2023/04/25 11:26:26;;;;;;;1.60;0.87;;;22.20;72.40;;;;;;5058535;28;20548;-56
2023/04/25 11:28:57;;;;;;;1.30;1.00;;;22.20;72.40;;;;;;5048792;28;20575;-55
2023/04/25 11:31:26;;;;;;;1.30;0.90;;;22.20;72.40;;;;;;5051320;28;20461;-57
2023/04/25 11:33:57;;;;;;;1.70;1.00;;;22.30;72.50;;;;;;5056589;28;20535;-59
2023/04/25 11:36:25;;;;;;;13.50;2.13;;;22.30;72.30;;;;;;5055831;28;20474;-62
2023/04/25 11:38:52;;;;;;;1.83;1.00;;;22.30;72.30;;;;;;5054623;28;20466;-63
2023/04/25 11:41:20;;;;;;;1.37;1.10;;;22.30;72.30;;;;;;5060808;28;20449;-62
2023/04/25 11:43:47;;;;;;;1.67;0.87;;;22.30;72.20;;;;;;5053453;28;20539;-63
2023/04/25 11:46:13;;;;;;;1.60;0.80;;;22.30;72.20;;;;;;5050410;28;20455;-61
2023/04/25 11:48:40;;;;;;;1.60;0.80;;;22.30;72.20;;;;;;5057377;28;20530;-60
2023/04/25 11:51:08;;;;;;;2.10;1.07;;;22.30;72.20;;;;;;5059097;28;20457;-60
2023/04/25 11:53:36;;;;;;;2.33;1.10;;;22.40;72.30;;;;;;5056690;28;20480;-59
2023/04/25 11:56:02;;;;;;;2.53;1.00;;;22.30;72.00;;;;;;5057318;28;20457;-57
2023/04/25 11:58:30;;;;;;;1.10;0.90;;;22.40;72.20;;;;;;5056612;28;20469;-66
2023/04/25 12:00:59;;;;;;;1.40;1.00;;;22.40;72.20;;;;;;5051982;28;20449;-59
2023/04/25 12:03:30;;;;;;;1.27;0.90;;;22.40;72.10;;;;;;5058079;28;20438;-57
2023/04/25 12:06:04;;;;;;;1.30;0.73;;;22.40;72.10;;;;;;5056329;28;20952;-56
2023/04/25 12:08:32;;;;;;;2.00;1.00;;;22.40;72.10;;;;;;5054231;28;20567;-62
2023/04/25 12:10:59;;;;;;;1.90;0.87;;;22.40;72.00;;;;;;5053504;28;20949;-62
2023/04/25 12:13:28;;;;;;;1.83;0.90;;;22.50;72.10;;;;;;5054134;28;20466;-63
2023/04/25 12:15:56;;;;;;;1.73;0.80;;;22.50;72.00;;;;;;5047315;28;20485;-63
2023/04/25 12:18:25;;;;;;;1.50;0.83;;;22.50;72.00;;;;;;5053733;28;20541;-60
2023/04/25 12:20:53;;;;;;;1.10;0.97;;;22.50;71.90;;;;;;5051067;28;20555;-61
2023/04/25 12:23:27;;;;;;;1.43;1.00;;;22.50;71.90;;;;;;5049179;28;20578;-61
2023/04/25 12:25:55;;;;;;;3.00;1.00;;;22.50;72.00;;;;;;5056154;28;20888;-62
2023/04/25 12:28:24;;;;;;;1.03;0.80;;;22.50;71.90;;;;;;5056469;28;20518;-63
2023/04/25 12:31:00;;;;;;;1.10;0.73;;;22.50;71.90;;;;;;5055522;28;20809;-62
2023/04/25 12:33:28;;;;;;;2.07;0.87;;;22.50;71.80;;;;;;5062732;28;21205;-63
2023/04/25 12:35:55;;;;;;;1.57;0.87;;;22.50;71.80;;;;;;5058365;28;20468;-67
2023/04/25 12:38:23;;;;;;;1.30;0.90;;;22.50;71.80;;;;;;5057750;28;20449;-65
2023/04/25 12:40:50;;;;;;;1.40;0.80;;;22.60;71.90;;;;;;5064742;28;20503;-61
2023/04/25 12:43:18;;;;;;;2.50;0.93;;;22.60;71.70;;;;;;5054418;28;20466;-60
2023/04/25 12:45:45;;;;;;;1.00;0.80;;;22.60;71.80;;;;;;5057636;28;20465;-64
2023/04/25 12:48:12;;;;;;;1.63;1.00;;;22.60;71.80;;;;;;5053389;28;20474;-66
2023/04/25 12:50:38;;;;;;;1.17;0.87;;;22.60;71.70;;;;;;5056644;28;21012;-65